createdAt,value
2022-08-09T00:04:00.609Z,2.17
2022-08-09T00:09:00.261Z,2.30
2022-08-09T00:14:08.449Z,2.63
2022-08-09T00:19:18.365Z,2.53
2022-08-09T00:24:27.756Z,2.27
2022-08-09T00:30:09.914Z,2.50
2022-08-09T00:34:46.436Z,3.13
2022-08-09T00:40:13.967Z,2.70
2022-08-09T00:45:15.925Z,2.97
2022-08-09T00:50:15.328Z,2.57
2022-08-09T00:56:03.748Z,2.40
2022-08-09T01:00:35.231Z,2.53
2022-08-09T01:11:01.215Z,2.57
2022-08-09T01:16:10.089Z,2.60
2022-08-09T01:21:24.887Z,2.80
2022-08-09T01:26:36.447Z,2.40
2022-08-09T01:32:32.231Z,2.47
2022-08-09T01:36:55.942Z,2.70
2022-08-09T01:42:11.184Z,3.00
2022-08-09T01:47:17.415Z,2.80
2022-08-09T01:52:26.145Z,2.37
2022-08-09T01:57:40.314Z,2.93
2022-08-09T02:02:50.747Z,2.97
2022-08-09T02:08:39.346Z,2.60
2022-08-09T02:13:12.926Z,2.80
2022-08-09T02:18:24.240Z,2.43
2022-08-09T02:23:39.948Z,2.50
2022-08-09T02:28:47.791Z,2.33
2022-08-09T02:34:07.298Z,2.97
2022-08-09T02:39:14.534Z,2.43
2022-08-09T02:44:29.140Z,2.07
2022-08-09T02:49:38.802Z,2.27
2022-08-09T02:54:54.061Z,2.47
2022-08-09T03:00:20.684Z,2.50
2022-08-09T03:05:03.034Z,2.50
2022-08-09T03:10:16.405Z,2.73
2022-08-09T03:15:22.882Z,2.80
2022-08-09T03:20:31.134Z,2.80
2022-08-09T03:25:59.148Z,2.80
2022-08-09T03:36:28.945Z,3.03
2022-08-09T03:41:45.957Z,2.80
2022-08-09T03:46:48.339Z,2.50
2022-08-09T03:52:00.443Z,3.10
2022-08-09T03:57:17.933Z,2.40
2022-08-09T04:02:30.013Z,3.20
2022-08-09T04:07:33.863Z,3.60
2022-08-09T04:12:44.980Z,3.30
2022-08-09T04:17:53.326Z,3.23
2022-08-09T04:23:03.071Z,4.00
2022-08-09T04:28:12.802Z,3.57
2022-08-09T04:33:21.092Z,3.67
2022-08-09T04:38:31.101Z,4.10
2022-08-09T04:43:54.008Z,3.50
2022-08-09T04:48:57.595Z,4.13
2022-08-09T04:54:00.783Z,4.70
2022-08-09T04:59:13.087Z,4.45
2022-08-09T05:04:17.874Z,4.20
2022-08-09T05:09:41.926Z,4.57
2022-08-09T05:14:36.087Z,4.20
2022-08-09T05:19:45.967Z,3.93
2022-08-09T05:24:57.247Z,3.90
2022-08-09T05:30:04.472Z,3.53
2022-08-09T05:35:14.424Z,3.63
2022-08-09T05:40:22.846Z,3.60
2022-08-09T05:45:53.082Z,3.07
2022-08-09T05:50:50.952Z,3.60
2022-08-09T05:55:53.118Z,3.23
2022-08-09T06:01:03.892Z,3.90
2022-08-09T06:06:14.195Z,3.80
2022-08-09T06:11:40.548Z,3.87
2022-08-09T06:16:32.054Z,3.37
2022-08-09T06:21:51.478Z,2.70
2022-08-09T06:26:51.951Z,2.50
2022-08-09T06:32:18.386Z,3.17
2022-08-09T06:37:10.053Z,2.83
2022-08-09T06:42:24.949Z,2.73
2022-08-09T06:47:40.138Z,2.50
2022-08-09T06:52:41.870Z,3.00
2022-08-09T06:58:02.676Z,3.33
2022-08-09T07:02:59.572Z,3.07
2022-08-09T07:08:08.404Z,2.67
2022-08-09T07:13:27.554Z,2.37
2022-08-09T07:18:27.490Z,2.63
2022-08-09T07:23:56.534Z,2.73
2022-08-09T07:29:07.806Z,2.50
2022-08-09T07:33:58.445Z,2.70
2022-08-09T07:39:20.262Z,2.90
2022-08-09T07:44:52.540Z,2.70
2022-08-09T07:49:35.728Z,2.60
2022-08-09T07:54:51.598Z,2.00
2022-08-09T08:00:03.734Z,3.17
2022-08-09T08:05:17.577Z,1.83
2022-08-09T08:10:18.851Z,2.30
2022-08-09T08:15:27.023Z,2.20
2022-08-09T08:20:37.190Z,1.83
2022-08-09T08:25:48.394Z,1.60
2022-08-09T08:30:56.046Z,2.67
2022-08-09T08:36:04.207Z,1.50
2022-08-09T08:41:12.830Z,1.57
2022-08-09T08:46:32.957Z,2.87
2022-08-09T08:51:41.535Z,1.63
2022-08-09T08:56:42.455Z,2.10
2022-08-09T09:01:56.654Z,2.00
2022-08-09T09:07:04.603Z,1.70
2022-08-09T09:12:16.721Z,1.30
2022-08-09T09:17:25.252Z,1.90
2022-08-09T09:22:38.416Z,2.07
2022-08-09T09:28:06.836Z,1.40
2022-08-09T09:33:01.390Z,2.10
2022-08-09T09:38:09.358Z,1.60
2022-08-09T09:43:20.993Z,1.40
2022-08-09T09:48:30.346Z,1.17
2022-08-09T09:53:57.327Z,1.37
2022-08-09T09:58:49.592Z,1.57
2022-08-09T10:04:02.355Z,1.30
2022-08-09T10:09:21.774Z,1.10
2022-08-09T10:14:30.267Z,0.90
2022-08-09T10:19:36.278Z,1.27
2022-08-09T10:24:44.466Z,1.13
2022-08-09T10:30:43.518Z,1.23
2022-08-09T10:35:04.213Z,1.40
2022-08-09T10:40:33.768Z,1.60
2022-08-09T10:45:22.663Z,1.50
2022-08-09T10:50:38.757Z,1.20
2022-08-09T10:55:55.379Z,1.50
2022-08-09T11:03:02.591Z,1.53
2022-08-09T11:06:11.178Z,1.80
2022-08-09T11:11:20.202Z,1.33
2022-08-09T11:16:35.179Z,3.40
2022-08-09T11:21:44.225Z,1.23
2022-08-09T11:26:54.991Z,1.10
2022-08-09T11:32:05.025Z,1.27
2022-08-09T11:37:18.279Z,1.03
2022-08-09T11:42:27.066Z,1.10
2022-08-09T11:47:38.782Z,1.13
2022-08-09T11:53:59.496Z,1.00
2022-08-09T11:58:19.698Z,1.10
2022-08-09T12:03:56.038Z,1.27
2022-08-09T12:08:50.489Z,1.10
2022-08-09T12:14:10.106Z,1.10
2022-08-09T12:19:12.086Z,0.87
2022-08-09T12:24:24.556Z,1.40
2022-08-09T12:29:52.626Z,0.97
2022-08-09T12:34:45.723Z,1.10
2022-08-09T12:39:57.019Z,1.27
2022-08-09T12:45:25.172Z,0.97
2022-08-09T12:50:17.160Z,1.10
2022-08-09T12:56:15.907Z,1.20
2022-08-09T13:00:47.295Z,1.47
2022-08-09T13:06:14.719Z,0.80
2022-08-09T13:11:13.093Z,1.37
2022-08-09T13:16:17.500Z,1.20
2022-08-09T13:22:37.695Z,1.30
2022-08-09T13:26:42.424Z,1.20
2022-08-09T13:32:15.578Z,1.43
2022-08-09T13:37:05.410Z,1.90
2022-08-09T13:42:17.576Z,1.40
2022-08-09T13:47:44.264Z,1.80
2022-08-09T13:52:36.245Z,1.37
2022-08-09T13:57:56.236Z,2.63
2022-08-09T14:03:03.016Z,1.57
2022-08-09T14:08:10.418Z,1.20
2022-08-09T14:13:21.591Z,1.37
2022-08-09T14:18:31.963Z,1.60
2022-08-09T14:23:40.659Z,1.37
2022-08-09T14:28:49.766Z,1.40
2022-08-09T14:33:57.721Z,1.27
2022-08-09T14:39:08.923Z,1.40
2022-08-09T14:44:17.590Z,1.47
2022-08-09T14:49:27.332Z,1.10
2022-08-09T14:54:37.007Z,2.00
2022-08-09T14:59:48.634Z,1.43
2022-08-09T15:04:56.936Z,1.37
2022-08-09T15:10:11.073Z,1.30
2022-08-09T15:15:17.139Z,1.23
2022-08-09T15:22:00.667Z,1.17
2022-08-09T15:25:41.344Z,1.97
2022-08-09T15:30:58.206Z,1.53
2022-08-09T15:36:02.083Z,1.40
2022-08-09T15:41:09.549Z,1.30
2022-08-09T15:46:31.945Z,1.50
2022-08-09T15:51:44.255Z,1.23
2022-08-09T15:56:34.985Z,1.57
2022-08-09T16:01:48.227Z,1.40
2022-08-09T16:06:56.148Z,1.67
2022-08-09T16:12:04.268Z,1.90
2022-08-09T16:17:12.127Z,1.40
2022-08-09T16:22:22.136Z,1.40
2022-08-09T16:27:30.660Z,1.10
2022-08-09T16:32:49.783Z,1.20
2022-08-09T16:37:56.996Z,2.00
2022-08-09T16:43:06.734Z,1.50
2022-08-09T16:48:42.614Z,1.13
2022-08-09T16:53:25.017Z,1.40
2022-08-09T16:58:36.754Z,2.10
2022-08-09T17:03:46.159Z,1.50
2022-08-09T17:09:03.041Z,1.40
2022-08-09T17:14:04.151Z,1.67
2022-08-09T17:19:12.014Z,1.33
2022-08-09T17:24:28.024Z,1.53
2022-08-09T17:29:37.730Z,1.40
2022-08-09T17:35:07.294Z,1.50
2022-08-09T17:39:53.493Z,1.23
2022-08-09T17:45:00.896Z,1.53
2022-08-09T17:50:16.837Z,1.40
2022-08-09T17:55:20.500Z,1.47
2022-08-09T18:00:33.418Z,1.60
2022-08-09T18:05:43.613Z,1.93
2022-08-09T18:10:58.807Z,4.30
2022-08-09T18:16:08.653Z,2.07
2022-08-09T18:21:22.870Z,1.47
2022-08-09T18:26:21.785Z,1.43
2022-08-09T18:31:55.001Z,1.50
2022-08-09T18:36:43.699Z,3.43
2022-08-09T18:41:53.918Z,1.77
2022-08-09T18:47:07.448Z,3.07
2022-08-09T18:52:12.894Z,3.17
2022-08-09T18:57:22.798Z,3.00
2022-08-09T19:02:33.131Z,2.77
2022-08-09T19:07:41.984Z,4.70
2022-08-09T19:17:59.260Z,5.90
2022-08-09T19:23:16.591Z,4.60
2022-08-09T19:28:28.818Z,5.17
2022-08-09T19:33:33.460Z,8.77
2022-08-09T19:38:42.952Z,8.30
2022-08-09T19:44:01.853Z,5.97
2022-08-09T19:50:09.844Z,4.37
2022-08-09T19:54:14.214Z,2.90
2022-08-09T19:59:58.239Z,2.30
2022-08-09T20:04:37.712Z,2.50
2022-08-09T20:09:47.542Z,2.10
2022-08-09T20:14:57.578Z,2.57
2022-08-09T20:20:08.613Z,2.63
2022-08-09T20:25:22.384Z,2.43
2022-08-09T20:30:29.820Z,2.20
2022-08-09T20:35:38.078Z,1.90
2022-08-09T20:40:49.090Z,1.90
2022-08-09T20:46:33.345Z,2.40
2022-08-09T20:51:19.367Z,2.20
2022-08-09T20:56:21.797Z,2.37
2022-08-09T21:01:32.554Z,2.73
2022-08-09T21:06:41.450Z,2.60
2022-08-09T21:17:02.234Z,2.83
2022-08-09T21:22:35.592Z,3.10
2022-08-09T21:27:52.119Z,3.20
2022-08-09T21:32:33.725Z,2.40
2022-08-09T21:37:59.422Z,3.10
2022-08-09T21:42:54.552Z,3.50
2022-08-09T21:48:03.074Z,2.90
2022-08-09T21:53:24.038Z,3.30
2022-08-09T21:58:21.234Z,2.83
2022-08-09T22:03:30.996Z,3.60
2022-08-09T22:08:39.326Z,4.50
2022-08-09T22:13:49.131Z,3.97
2022-08-09T22:18:58.785Z,3.37
2022-08-09T22:24:07.115Z,3.03
2022-08-09T22:29:15.067Z,3.77
2022-08-09T22:34:25.479Z,3.47
2022-08-09T22:39:57.259Z,2.87
2022-08-09T22:44:45.654Z,3.20
2022-08-09T22:49:53.980Z,3.70
2022-08-09T22:55:02.110Z,3.13
2022-08-09T23:00:12.040Z,2.97
2022-08-09T23:05:20.605Z,3.20
2022-08-09T23:10:30.471Z,3.30
2022-08-09T23:15:39.721Z,3.57
2022-08-09T23:20:47.707Z,3.73
2022-08-09T23:25:56.471Z,3.33
2022-08-09T23:31:04.471Z,3.33
2022-08-09T23:36:12.747Z,3.40
2022-08-09T23:41:28.670Z,3.37
2022-08-09T23:46:31.238Z,3.63
2022-08-09T23:51:39.665Z,4.17
2022-08-09T23:56:54.411Z,3.83
